createdAt,value
2018-06-08T00:01:09.746Z,34.63
2018-06-08T00:03:38.226Z,34.77
2018-06-08T00:06:06.764Z,38.30
2018-06-08T00:08:35.332Z,34.70
2018-06-08T00:11:03.811Z,36.67
2018-06-08T00:13:32.456Z,38.73
2018-06-08T00:16:00.977Z,36.53
2018-06-08T00:18:29.836Z,37.10
2018-06-08T00:20:58.566Z,37.17
2018-06-08T00:23:26.942Z,37.33
2018-06-08T00:25:55.800Z,39.37
2018-06-08T00:28:24.089Z,37.60
2018-06-08T00:30:53.065Z,38.50
2018-06-08T00:33:21.531Z,36.23
2018-06-08T00:35:49.888Z,39.27
2018-06-08T00:38:18.440Z,40.17
2018-06-08T00:40:47.021Z,47.33
2018-06-08T00:43:15.433Z,40.20
2018-06-08T00:45:43.913Z,42.47
2018-06-08T00:48:12.384Z,44.50
2018-06-08T00:50:41.158Z,42.23
2018-06-08T00:53:09.829Z,42.93
2018-06-08T00:55:38.600Z,44.53
2018-06-08T00:58:07.090Z,43.70
2018-06-08T01:00:35.592Z,42.93
2018-06-08T01:03:04.062Z,42.63
2018-06-08T01:05:32.704Z,45.73
2018-06-08T01:08:01.439Z,42.07
2018-06-08T01:10:30.241Z,45.67
2018-06-08T01:12:58.852Z,47.17
2018-06-08T01:15:28.399Z,44.77
2018-06-08T01:17:56.652Z,44.73
2018-06-08T01:20:25.272Z,44.70
2018-06-08T01:22:53.974Z,43.27
2018-06-08T01:25:22.485Z,48.23
2018-06-08T01:27:51.120Z,43.77
2018-06-08T01:30:19.387Z,46.37
2018-06-08T01:32:47.861Z,46.87
2018-06-08T01:35:16.394Z,44.33
2018-06-08T01:37:45.194Z,49.23
2018-06-08T01:40:13.951Z,46.87
2018-06-08T01:42:42.722Z,44.07
2018-06-08T01:45:11.458Z,47.93
2018-06-08T01:47:40.145Z,46.07
2018-06-08T01:50:08.761Z,49.17
2018-06-08T01:52:37.536Z,50.00
2018-06-08T01:55:06.164Z,50.23
2018-06-08T01:57:34.857Z,46.23
2018-06-08T02:00:03.593Z,46.40
2018-06-08T02:02:32.824Z,48.67
2018-06-08T02:05:01.236Z,50.20
2018-06-08T02:07:29.811Z,47.40
2018-06-08T02:09:58.299Z,52.10
2018-06-08T02:12:27.126Z,57.47
2018-06-08T02:14:55.603Z,55.37
2018-06-08T02:17:24.320Z,50.90
2018-06-08T02:19:53.062Z,50.93
2018-06-08T02:22:21.620Z,53.93
2018-06-08T02:24:49.947Z,58.33
2018-06-08T02:27:18.968Z,58.80
2018-06-08T02:29:47.426Z,69.50
2018-06-08T02:32:15.946Z,64.60
2018-06-08T02:34:44.466Z,75.33
2018-06-08T02:37:13.492Z,64.07
2018-06-08T02:39:41.955Z,61.73
2018-06-08T02:42:10.720Z,61.17
2018-06-08T02:44:39.697Z,59.70
2018-06-08T02:47:08.567Z,62.37
2018-06-08T02:49:37.130Z,64.80
2018-06-08T02:52:05.683Z,55.97
2018-06-08T02:54:34.128Z,55.00
2018-06-08T02:57:02.380Z,47.13
2018-06-08T02:59:30.879Z,48.60
2018-06-08T03:01:59.797Z,46.30
2018-06-08T03:04:28.430Z,43.73
2018-06-08T03:06:56.996Z,47.87
2018-06-08T03:09:25.676Z,47.47
2018-06-08T03:11:54.234Z,50.63
2018-06-08T03:14:22.628Z,48.30
2018-06-08T03:16:51.197Z,49.93
2018-06-08T03:19:19.603Z,50.73
2018-06-08T03:21:48.412Z,49.77
2018-06-08T03:24:16.987Z,52.47
2018-06-08T03:26:45.508Z,55.87
2018-06-08T03:29:14.048Z,58.83
2018-06-08T03:31:42.667Z,54.77
2018-06-08T03:34:11.076Z,61.00
2018-06-08T03:36:39.464Z,58.30
2018-06-08T03:39:08.613Z,61.77
2018-06-08T03:41:37.108Z,55.07
2018-06-08T03:44:05.712Z,53.20
2018-06-08T03:46:34.030Z,45.90
2018-06-08T03:49:02.778Z,51.60
2018-06-08T03:51:31.180Z,49.23
2018-06-08T03:53:59.784Z,40.40
2018-06-08T03:56:28.474Z,41.43
2018-06-08T03:58:57.090Z,41.03
2018-06-08T04:01:25.618Z,41.63
2018-06-08T04:03:54.174Z,37.87
2018-06-08T04:06:22.551Z,42.57
2018-06-08T04:08:51.018Z,33.47
2018-06-08T04:11:19.481Z,36.03
2018-06-08T04:13:47.960Z,40.43
2018-06-08T04:16:16.344Z,34.20
2018-06-08T04:18:45.120Z,36.20
2018-06-08T04:21:13.847Z,31.03
2018-06-08T04:23:42.297Z,33.37
2018-06-08T04:26:10.792Z,28.33
2018-06-08T04:28:39.163Z,27.60
2018-06-08T04:31:07.708Z,27.00
2018-06-08T04:33:35.933Z,27.33
2018-06-08T04:36:04.767Z,28.77
2018-06-08T04:38:33.755Z,25.93
2018-06-08T04:41:02.474Z,25.20
2018-06-08T04:43:30.860Z,23.07
2018-06-08T04:45:59.651Z,25.97
2018-06-08T04:48:28.277Z,25.23
2018-06-08T04:50:57.157Z,24.80
2018-06-08T04:53:28.926Z,26.83
2018-06-08T04:55:57.388Z,26.47
2018-06-08T04:58:25.880Z,21.93
2018-06-08T05:00:54.294Z,25.30
2018-06-08T05:03:22.960Z,28.93
2018-06-08T05:08:31.445Z,28.20
2018-06-08T05:11:00.358Z,28.97
2018-06-08T05:13:28.953Z,29.70
2018-06-08T05:15:57.519Z,29.90
2018-06-08T05:18:26.125Z,33.10
2018-06-08T05:20:54.681Z,30.67
2018-06-08T05:23:23.154Z,26.93
2018-06-08T05:25:51.833Z,27.73
2018-06-08T05:28:20.658Z,27.50
2018-06-08T05:30:49.270Z,28.40
2018-06-08T05:33:17.804Z,25.30
2018-06-08T05:35:46.583Z,24.27
2018-06-08T05:38:17.879Z,24.43
2018-06-08T05:40:46.551Z,26.30
2018-06-08T05:43:14.933Z,24.60
2018-06-08T05:45:43.609Z,24.00
2018-06-08T05:48:12.173Z,24.07
2018-06-08T05:50:40.681Z,21.77
2018-06-08T05:53:09.284Z,24.83
2018-06-08T05:55:38.176Z,25.80
2018-06-08T05:58:07.018Z,23.37
2018-06-08T06:00:35.680Z,23.53
2018-06-08T06:03:04.252Z,24.53
2018-06-08T06:05:32.774Z,28.60
2018-06-08T06:08:01.397Z,24.87
2018-06-08T06:10:29.983Z,26.47
2018-06-08T06:12:58.695Z,21.37
2018-06-08T06:15:27.920Z,24.50
2018-06-08T06:17:56.670Z,22.63
2018-06-08T06:20:25.166Z,25.47
2018-06-08T06:22:53.779Z,19.20
2018-06-08T06:25:22.678Z,20.77
2018-06-08T06:27:51.156Z,21.87
2018-06-08T06:30:19.845Z,24.93
2018-06-08T06:32:48.601Z,27.07
2018-06-08T06:35:18.013Z,25.47
2018-06-08T06:37:46.729Z,28.70
2018-06-08T06:40:15.224Z,27.63
2018-06-08T06:42:44.030Z,28.40
2018-06-08T06:45:12.533Z,28.67
2018-06-08T06:47:40.786Z,24.70
2018-06-08T06:50:09.377Z,26.57
2018-06-08T06:52:37.969Z,29.73
2018-06-08T06:55:06.567Z,19.43
2018-06-08T06:57:35.069Z,24.97
2018-06-08T07:00:03.825Z,24.30
2018-06-08T07:02:33.104Z,19.27
2018-06-08T07:05:01.741Z,18.27
2018-06-08T07:07:30.189Z,26.80
2018-06-08T07:09:58.752Z,21.03
2018-06-08T07:12:27.457Z,25.63
2018-06-08T07:14:56.077Z,25.23
2018-06-08T07:17:24.896Z,23.57
2018-06-08T07:19:53.302Z,23.50
2018-06-08T07:22:21.966Z,23.23
2018-06-08T07:24:50.650Z,23.73
2018-06-08T07:27:19.180Z,23.27
2018-06-08T07:29:47.884Z,29.53
2018-06-08T07:32:16.501Z,27.37
2018-06-08T07:34:45.130Z,25.67
2018-06-08T07:37:13.510Z,22.13
2018-06-08T07:39:41.902Z,25.07
2018-06-08T07:42:10.350Z,24.43
2018-06-08T07:44:39.204Z,28.03
2018-06-08T07:47:07.742Z,25.53
2018-06-08T07:49:36.295Z,23.27
2018-06-08T07:52:04.846Z,22.33
2018-06-08T07:54:33.557Z,20.53
2018-06-08T07:57:02.466Z,21.07
2018-06-08T07:59:31.614Z,21.43
2018-06-08T08:02:00.068Z,24.13
2018-06-08T08:04:28.509Z,21.63
2018-06-08T08:06:56.873Z,22.13
2018-06-08T08:09:25.292Z,22.80
2018-06-08T08:11:53.766Z,23.37
2018-06-08T08:14:22.306Z,25.20
2018-06-08T08:16:50.764Z,21.10
2018-06-08T08:19:19.414Z,23.07
2018-06-08T08:21:47.775Z,24.83
2018-06-08T08:24:16.113Z,26.30
2018-06-08T08:26:44.631Z,21.80
2018-06-08T08:29:13.436Z,23.13
2018-06-08T08:31:42.084Z,22.30
2018-06-08T08:34:10.811Z,23.03
2018-06-08T08:36:39.353Z,18.37
2018-06-08T08:39:08.717Z,20.97
2018-06-08T08:41:37.384Z,21.27
2018-06-08T08:44:06.239Z,23.67
2018-06-08T08:46:34.894Z,20.43
2018-06-08T08:49:03.740Z,20.63
2018-06-08T08:51:32.735Z,19.33
2018-06-08T08:54:01.093Z,16.93
2018-06-08T08:56:29.710Z,14.27
2018-06-08T08:58:59.672Z,16.50
2018-06-08T09:01:28.208Z,18.13
2018-06-08T09:03:56.803Z,17.73
2018-06-08T09:06:25.816Z,15.20
2018-06-08T09:08:54.189Z,15.80
2018-06-08T09:11:23.025Z,18.20
2018-06-08T09:13:51.676Z,16.90
2018-06-08T09:16:20.160Z,17.53
2018-06-08T09:18:48.588Z,13.40
2018-06-08T09:21:17.122Z,14.17
2018-06-08T09:23:45.460Z,11.23
2018-06-08T09:26:13.952Z,13.50
2018-06-08T09:28:42.548Z,13.10
2018-06-08T09:31:11.033Z,13.37
2018-06-08T09:33:39.612Z,12.83
2018-06-08T09:36:08.668Z,11.97
2018-06-08T09:38:37.232Z,12.63
2018-06-08T09:41:05.829Z,15.47
2018-06-08T09:43:35.414Z,11.80
2018-06-08T09:46:03.845Z,11.70
2018-06-08T09:48:32.689Z,10.13
2018-06-08T09:51:01.160Z,11.00
2018-06-08T09:53:29.519Z,12.57
2018-06-08T09:55:58.083Z,11.80
2018-06-08T09:58:27.585Z,10.80
2018-06-08T10:00:56.112Z,10.67
2018-06-08T10:03:24.630Z,12.90
2018-06-08T10:05:53.323Z,10.53
2018-06-08T10:08:21.937Z,11.70
2018-06-08T10:10:50.394Z,11.37
2018-06-08T10:13:19.065Z,10.50
2018-06-08T10:15:48.640Z,11.57
2018-06-08T10:18:17.125Z,10.83
2018-06-08T10:20:45.945Z,9.63
2018-06-08T10:23:14.660Z,14.33
2018-06-08T10:25:43.285Z,14.03
2018-06-08T10:28:11.803Z,11.30
2018-06-08T10:30:40.615Z,11.47
2018-06-08T10:33:09.274Z,12.90
2018-06-08T10:35:38.037Z,12.23
2018-06-08T10:38:06.390Z,15.77
2018-06-08T10:40:35.161Z,11.00
2018-06-08T10:43:04.732Z,13.87
2018-06-08T10:45:33.630Z,12.23
2018-06-08T10:48:02.333Z,19.40
2018-06-08T10:50:30.775Z,15.33
2018-06-08T10:52:59.302Z,18.67
2018-06-08T10:55:27.993Z,21.13
2018-06-08T10:57:56.370Z,22.87
2018-06-08T11:00:24.988Z,23.73
2018-06-08T11:02:53.648Z,24.23
2018-06-08T11:05:22.096Z,25.03
2018-06-08T11:07:50.757Z,24.47
2018-06-08T11:10:19.024Z,27.80
2018-06-08T11:12:47.504Z,27.10
2018-06-08T11:15:16.053Z,32.57
2018-06-08T11:17:44.633Z,30.60
2018-06-08T11:20:13.135Z,31.33
2018-06-08T11:22:41.766Z,22.70
2018-06-08T11:25:10.120Z,24.87
2018-06-08T11:27:38.597Z,35.90
2018-06-08T11:30:07.186Z,28.97
2018-06-08T11:32:35.756Z,28.67
2018-06-08T11:35:04.250Z,32.50
2018-06-08T11:37:32.928Z,30.87
2018-06-08T11:40:01.588Z,32.00
2018-06-08T11:42:30.412Z,26.50
2018-06-08T11:44:58.989Z,31.60
2018-06-08T11:47:27.673Z,32.77
2018-06-08T11:49:56.173Z,30.67
2018-06-08T11:52:24.736Z,30.20
2018-06-08T11:54:53.556Z,32.80
2018-06-08T11:57:22.206Z,27.97
2018-06-08T11:59:51.543Z,35.90
2018-06-08T12:02:20.058Z,34.63
2018-06-08T12:04:48.545Z,35.37
2018-06-08T12:07:21.878Z,32.13
2018-06-08T12:09:50.339Z,35.20
2018-06-08T12:12:19.078Z,35.47
2018-06-08T12:14:47.408Z,36.37
2018-06-08T12:17:15.873Z,34.40
2018-06-08T12:19:44.445Z,30.07
2018-06-08T12:22:12.945Z,34.37
2018-06-08T12:24:41.610Z,35.03
2018-06-08T12:27:10.009Z,32.47
2018-06-08T12:29:38.554Z,37.00
2018-06-08T12:32:06.848Z,39.17
2018-06-08T12:34:35.324Z,33.40
2018-06-08T12:37:04.152Z,32.73
2018-06-08T12:39:33.828Z,31.23
2018-06-08T12:42:02.345Z,35.10
2018-06-08T12:44:30.966Z,34.90
2018-06-08T12:46:59.553Z,38.30
2018-06-08T12:49:28.466Z,36.10
2018-06-08T12:51:57.125Z,38.57
2018-06-08T12:54:25.569Z,35.87
2018-06-08T12:56:54.532Z,34.93
2018-06-08T12:59:22.931Z,30.13
2018-06-08T13:01:51.460Z,42.43
2018-06-08T13:04:20.000Z,41.97
2018-06-08T13:06:48.638Z,42.50
2018-06-08T13:09:17.054Z,42.30
2018-06-08T13:11:45.420Z,38.53
2018-06-08T13:14:14.037Z,39.63
2018-06-08T13:16:42.646Z,40.57
2018-06-08T13:19:11.259Z,39.37
2018-06-08T13:21:39.774Z,38.70
2018-06-08T13:24:08.316Z,39.90
2018-06-08T13:26:37.521Z,42.10
2018-06-08T13:29:06.272Z,49.23
2018-06-08T13:31:34.964Z,45.20
2018-06-08T13:34:03.607Z,38.53
2018-06-08T13:36:32.417Z,54.03
2018-06-08T13:39:00.967Z,54.20
2018-06-08T13:41:29.373Z,51.07
2018-06-08T13:43:57.921Z,52.67
2018-06-08T13:46:42.225Z,59.30
2018-06-08T13:49:11.018Z,56.20
2018-06-08T13:51:39.979Z,45.60
2018-06-08T13:54:08.622Z,51.93
2018-06-08T13:56:37.076Z,47.53
2018-06-08T13:59:06.031Z,57.00
2018-06-08T14:01:34.718Z,50.10
2018-06-08T14:04:03.266Z,61.63
2018-06-08T14:06:31.843Z,55.00
2018-06-08T14:09:00.500Z,57.00
2018-06-08T14:11:28.938Z,56.27
2018-06-08T14:13:57.255Z,54.73
2018-06-08T14:16:25.728Z,54.30
2018-06-08T14:18:54.305Z,46.53
2018-06-08T14:21:22.882Z,48.07
2018-06-08T14:23:51.600Z,48.87
2018-06-08T14:26:20.263Z,52.50
2018-06-08T14:28:49.095Z,52.37
2018-06-08T14:31:17.700Z,49.47
2018-06-08T14:33:46.248Z,44.53
2018-06-08T14:36:14.978Z,41.70
2018-06-08T14:38:43.401Z,41.20
2018-06-08T14:41:11.832Z,44.57
2018-06-08T14:43:40.238Z,44.37
2018-06-08T14:46:08.794Z,41.83
2018-06-08T14:48:37.379Z,43.67
2018-06-08T14:51:06.255Z,44.70
2018-06-08T14:53:35.094Z,53.37
2018-06-08T14:56:03.808Z,46.33
2018-06-08T14:58:32.623Z,44.63
2018-06-08T15:01:01.291Z,48.40
2018-06-08T15:03:30.054Z,42.73
2018-06-08T15:05:58.656Z,53.90
2018-06-08T15:08:27.193Z,52.70
2018-06-08T15:10:55.831Z,50.40
2018-06-08T15:13:24.397Z,56.30
2018-06-08T15:15:53.375Z,52.70
2018-06-08T15:18:22.013Z,55.10
2018-06-08T15:20:50.475Z,58.50
2018-06-08T15:23:18.958Z,57.33
2018-06-08T15:25:47.394Z,58.90
2018-06-08T15:28:15.866Z,54.90
2018-06-08T15:30:44.488Z,55.77
2018-06-08T15:33:13.256Z,48.00
2018-06-08T15:35:42.029Z,52.03
2018-06-08T15:38:11.142Z,58.47
2018-06-08T15:40:39.669Z,64.10
2018-06-08T15:43:08.399Z,62.37
2018-06-08T15:45:37.059Z,53.50
2018-06-08T15:48:05.571Z,51.57
2018-06-08T15:50:34.400Z,46.70
2018-06-08T15:53:03.128Z,52.87
2018-06-08T15:55:31.768Z,49.77
2018-06-08T15:58:00.516Z,41.47
2018-06-08T16:00:28.994Z,49.17
2018-06-08T16:02:57.337Z,43.37
2018-06-08T16:05:26.061Z,38.97
2018-06-08T16:07:54.683Z,44.10
2018-06-08T16:10:23.509Z,38.83
2018-06-08T16:12:52.141Z,35.80
2018-06-08T16:15:20.976Z,34.73
2018-06-08T16:17:49.366Z,33.37
2018-06-08T16:20:18.041Z,34.33
2018-06-08T16:22:46.674Z,29.40
2018-06-08T16:25:15.228Z,32.07
2018-06-08T16:27:43.853Z,31.50
2018-06-08T16:30:12.804Z,32.47
2018-06-08T16:32:41.419Z,33.70
2018-06-08T16:35:09.958Z,30.70
2018-06-08T16:37:38.495Z,28.73
2018-06-08T16:40:07.013Z,30.00
2018-06-08T16:42:35.784Z,29.90
2018-06-08T16:45:04.345Z,34.67
2018-06-08T16:47:33.074Z,35.23
2018-06-08T16:50:01.987Z,32.10
2018-06-08T16:52:30.577Z,34.57
2018-06-08T16:54:59.428Z,35.23
2018-06-08T16:57:27.985Z,32.33
2018-06-08T16:59:56.564Z,32.23
2018-06-08T17:02:25.217Z,32.73
2018-06-08T17:04:54.330Z,31.17
2018-06-08T17:07:22.667Z,28.80
2018-06-08T17:09:51.292Z,28.80
2018-06-08T17:12:19.791Z,33.57
2018-06-08T17:14:48.277Z,34.00
2018-06-08T17:17:16.803Z,32.97
2018-06-08T17:19:46.056Z,36.13
2018-06-08T17:22:14.958Z,35.30
2018-06-08T17:24:43.576Z,34.47
2018-06-08T17:27:12.402Z,35.23
2018-06-08T17:29:41.006Z,35.73
2018-06-08T17:32:09.590Z,32.70
2018-06-08T17:34:38.113Z,35.30
2018-06-08T17:37:06.978Z,36.43
2018-06-08T17:39:35.605Z,35.97
2018-06-08T17:42:04.773Z,36.63
2018-06-08T17:44:33.401Z,36.70
2018-06-08T17:47:02.419Z,37.03
2018-06-08T17:49:30.811Z,38.53
2018-06-08T17:51:59.385Z,37.90
2018-06-08T17:54:28.241Z,38.90
2018-06-08T17:56:57.067Z,38.00
2018-06-08T17:59:25.504Z,39.57
2018-06-08T18:01:54.351Z,36.77
2018-06-08T18:04:23.111Z,37.73
2018-06-08T18:06:51.465Z,37.93
2018-06-08T18:09:20.065Z,35.73
2018-06-08T18:11:48.557Z,39.63
2018-06-08T18:14:17.188Z,36.20
2018-06-08T18:16:45.773Z,38.53
2018-06-08T18:19:14.621Z,38.27
2018-06-08T18:21:43.462Z,37.43
2018-06-08T18:24:11.889Z,37.87
2018-06-08T18:26:40.332Z,34.50
2018-06-08T18:29:09.263Z,36.83
2018-06-08T18:31:37.616Z,37.47
2018-06-08T18:34:06.426Z,38.47
2018-06-08T18:36:34.973Z,37.97
2018-06-08T18:39:05.844Z,40.07
2018-06-08T18:41:34.735Z,38.23
2018-06-08T18:44:03.241Z,40.33
2018-06-08T18:46:31.878Z,38.53
2018-06-08T18:49:00.724Z,37.63
2018-06-08T18:51:29.239Z,41.10
2018-06-08T18:53:57.885Z,37.07
2018-06-08T18:56:27.171Z,37.60
2018-06-08T18:58:55.596Z,37.33
2018-06-08T19:01:24.234Z,40.33
2018-06-08T19:03:52.752Z,38.57
2018-06-08T19:06:21.561Z,39.10
2018-06-08T19:08:50.162Z,38.63
2018-06-08T19:11:18.772Z,34.90
2018-06-08T19:13:47.372Z,39.93
2018-06-08T19:16:16.140Z,40.47
2018-06-08T19:18:44.889Z,41.63
2018-06-08T19:21:13.408Z,43.17
2018-06-08T19:23:42.100Z,41.43
2018-06-08T19:26:10.669Z,41.13
2018-06-08T19:28:39.424Z,42.53
2018-06-08T19:31:08.122Z,40.27
2018-06-08T19:33:36.651Z,44.47
2018-06-08T19:36:05.337Z,42.40
2018-06-08T19:38:33.610Z,41.40
2018-06-08T19:41:01.949Z,41.73
2018-06-08T19:43:30.757Z,43.80
2018-06-08T19:45:59.281Z,43.97
2018-06-08T19:48:27.989Z,40.57
2018-06-08T19:50:56.538Z,49.67
2018-06-08T19:53:25.079Z,42.17
2018-06-08T19:55:53.931Z,44.80
2018-06-08T19:58:22.491Z,43.40
2018-06-08T20:00:51.058Z,45.57
2018-06-08T20:03:19.595Z,42.23
2018-06-08T20:05:48.126Z,42.93
2018-06-08T20:08:17.040Z,43.43
2018-06-08T20:10:45.552Z,46.83
2018-06-08T20:13:14.066Z,42.50
2018-06-08T20:15:42.647Z,43.73
2018-06-08T20:18:11.183Z,46.07
2018-06-08T20:20:40.033Z,45.57
2018-06-08T20:23:08.754Z,48.37
2018-06-08T20:25:37.380Z,46.77
2018-06-08T20:28:05.943Z,47.80
2018-06-08T20:30:34.549Z,46.23
2018-06-08T20:33:03.344Z,45.10
2018-06-08T20:35:31.744Z,45.60
2018-06-08T20:38:00.519Z,45.60
2018-06-08T20:40:29.237Z,46.43
2018-06-08T20:42:57.866Z,45.80
2018-06-08T20:45:26.437Z,45.10
2018-06-08T20:47:54.961Z,46.30
2018-06-08T20:50:23.557Z,47.47
2018-06-08T20:52:52.196Z,45.50
2018-06-08T20:55:20.912Z,50.80
2018-06-08T20:58:00.741Z,44.50
2018-06-08T21:00:29.653Z,42.07
2018-06-08T21:02:58.212Z,45.23
2018-06-08T21:05:26.799Z,43.40
2018-06-08T21:07:55.208Z,45.83
2018-06-08T21:10:24.200Z,45.50
2018-06-08T21:12:52.761Z,44.23
2018-06-08T21:15:21.312Z,48.60
2018-06-08T21:17:49.860Z,46.53
2018-06-08T21:20:18.210Z,45.23
2018-06-08T21:22:46.839Z,45.93
2018-06-08T21:25:15.638Z,45.27
2018-06-08T21:27:44.406Z,44.77
2018-06-08T21:30:13.049Z,45.07
2018-06-08T21:32:41.658Z,45.03
2018-06-08T21:35:10.234Z,46.50
2018-06-08T21:37:38.826Z,47.67
2018-06-08T21:40:07.418Z,47.00
2018-06-08T21:42:35.848Z,50.67
2018-06-08T21:45:04.446Z,50.10
2018-06-08T21:47:33.016Z,46.17
2018-06-08T21:50:01.938Z,50.37
2018-06-08T21:52:30.462Z,48.80
2018-06-08T21:54:59.048Z,48.10
2018-06-08T21:57:27.839Z,47.43
2018-06-08T21:59:56.227Z,50.67
2018-06-08T22:02:24.819Z,51.83
2018-06-08T22:04:53.445Z,48.50
2018-06-08T22:07:22.321Z,50.43
2018-06-08T22:09:50.874Z,52.40
2018-06-08T22:12:19.517Z,52.10
2018-06-08T22:14:48.100Z,51.27
2018-06-08T22:17:17.173Z,55.03
2018-06-08T22:19:45.754Z,52.90
2018-06-08T22:22:14.604Z,53.77
2018-06-08T22:24:43.230Z,53.10
2018-06-08T22:27:12.229Z,58.40
2018-06-08T22:29:40.649Z,54.57
2018-06-08T22:32:09.017Z,55.30
2018-06-08T22:34:37.681Z,55.47
2018-06-08T22:37:06.357Z,57.60
2018-06-08T22:39:34.872Z,57.50
2018-06-08T22:42:03.609Z,60.90
2018-06-08T22:44:32.319Z,61.67
2018-06-08T22:47:01.081Z,59.77
2018-06-08T22:49:29.831Z,61.80
2018-06-08T22:51:58.228Z,60.93
2018-06-08T22:54:26.716Z,56.73
2018-06-08T22:56:55.433Z,68.80
2018-06-08T22:59:23.913Z,64.93
2018-06-08T23:01:52.494Z,66.93
2018-06-08T23:04:21.013Z,64.40
2018-06-08T23:06:49.456Z,58.77
2018-06-08T23:09:17.970Z,61.37
2018-06-08T23:11:46.538Z,62.33
2018-06-08T23:14:15.068Z,57.63
2018-06-08T23:16:43.554Z,61.00
2018-06-08T23:19:12.226Z,59.33
2018-06-08T23:21:41.161Z,56.97
2018-06-08T23:24:09.764Z,56.30
2018-06-08T23:26:38.300Z,60.90
2018-06-08T23:29:06.845Z,57.77
2018-06-08T23:31:35.644Z,55.50
2018-06-08T23:34:04.573Z,58.40
2018-06-08T23:36:33.153Z,55.23
2018-06-08T23:39:01.712Z,57.00
2018-06-08T23:41:30.399Z,58.83
2018-06-08T23:43:58.866Z,54.67
2018-06-08T23:46:27.475Z,53.33
2018-06-08T23:48:55.971Z,51.77
2018-06-08T23:51:25.008Z,61.80
2018-06-08T23:53:54.015Z,54.93
2018-06-08T23:56:23.222Z,58.13
2018-06-08T23:58:51.933Z,55.03
